Celia — V2DD5 — position and weather

sailwx.info

Track history (hours):
 
Tides and Currents Weather Stations Pressure Air Temp Water Temp Dewpoint Dewpoint Depression Visibility Wind Speed Wind Dir Waves Ship Positions

Celia

Last reported at 2018-Jul-04 04:15 UTC. Time now 2018-Jul-17 11:22 UTC.
Position N 17°28' W 063°08'.
Warning: this ship's position is 13 days out of date.

Length 101 m; draft 5.8 m.

Type: Ship (hazmat cat A). MMSI: 305176000.

Date/timePositionNaut miles runAvg speedWind from/ knotsBaromVisibWave heightAir tempDewpointWater temp
2018-Jul-04 04:15N 17°28' W 063°08'311.6
2018-Jul-04 03:59N 17°31' W 063°09'611.3
2018-Jul-04 03:29N 17°36' W 063°10'610.9
2018-Jul-04 02:54N 17°42' W 063°12'510.6
2018-Jul-04 02:28N 17°46' W 063°15'510.3
2018-Jul-04 01:58N 17°50' W 063°19'510.4
2018-Jul-04 01:29N 17°53' W 063°23'510.5
2018-Jul-04 00:58N 17°57' W 063°26'510.6
2018-Jul-04 00:30N 18°01' W 063°30'510.6
2018-Jul-04 00:00N 18°05' W 063°34'  
2018-Jun-26 11:18N 31°38' W 080°12'3 9.4
2018-Jun-26 10:59N 31°41' W 080°10'5 9.4
2018-Jun-26 10:27N 31°44' W 080°06'7 9.5
2018-Jun-26 09:41N 31°50' W 080°01'2 9.5
2018-Jun-26 09:30N 31°51' W 079°59'5 9.5
2018-Jun-26 09:00N 31°55' W 079°56'510.0
2018-Jun-26 08:30N 31°59' W 079°52'510.1
2018-Jun-26 08:00N 32°03' W 079°48'510.3
2018-Jun-26 07:30N 32°06' W 079°44'710.7
2018-Jun-26 06:53N 32°09' W 079°37'199 9.5
2018-Jun-25 09:52N 34°10' W 076°28'410.3
2018-Jun-25 09:31N 34°12' W 076°24'710.5
2018-Jun-25 08:52N 34°16' W 076°18'410.3
2018-Jun-25 08:30N 34°18' W 076°14'45 9.5
2018-Jun-25 03:46N 34°36' W 075°24'3 7.8
2018-Jun-25 03:21N 34°37' W 075°20'4 7.3
2018-Jun-25 02:48N 34°38' W 075°15'38 7.4
2018-Jun-24 21:39N 35°16' W 075°11'1 9.2
2018-Jun-24 21:30N 35°17' W 075°11'85 9.0
2018-Jun-24 12:02N 36°40' W 075°38'0 9.0
2018-Jun-24 12:00N 36°40' W 075°38'15 9.0
2018-Jun-24 10:19N 36°51' W 075°51'6 9.2
2018-Jun-24 09:40N 36°55' W 075°57'5 9.4
2018-Jun-24 09:06N 36°59' W 076°02'2211.9
2018-Jun-24 07:18N 37°20' W 076°07'413.3
2018-Jun-24 07:00N 37°24' W 076°07'713.1
2018-Jun-24 06:30N 37°30' W 076°08'1612.7
2018-Jun-24 05:17N 37°46' W 076°11'712.4
2018-Jun-24 04:45N 37°52' W 076°10'311.6
2018-Jun-24 04:29N 37°55' W 076°11'  
Track history (hours):
 
Tides and Currents Weather Stations Pressure Air Temp Water Temp Dewpoint Dewpoint Depression Visibility Wind Speed Wind Dir Waves Ship Positions

Celia

Last reported at 2018-Jul-04 04:15 UTC. Time now 2018-Jul-17 11:22 UTC.
Position N 17°28' W 063°08'.
Warning: this ship's position is 13 days out of date.

Length 101 m; draft 5.8 m.

Type: Ship (hazmat cat A). MMSI: 305176000.

Date/timePositionNaut miles runAvg speedWind from/ knotsBaromVisibWave heightAir tempDewpointWater temp
2018-Jul-04 04:15N 17°28' W 063°08'311.6
2018-Jul-04 03:59N 17°31' W 063°09'611.3
2018-Jul-04 03:29N 17°36' W 063°10'610.9
2018-Jul-04 02:54N 17°42' W 063°12'510.6
2018-Jul-04 02:28N 17°46' W 063°15'510.3
2018-Jul-04 01:58N 17°50' W 063°19'510.4
2018-Jul-04 01:29N 17°53' W 063°23'510.5
2018-Jul-04 00:58N 17°57' W 063°26'510.6
2018-Jul-04 00:30N 18°01' W 063°30'510.6
2018-Jul-04 00:00N 18°05' W 063°34'  
2018-Jun-26 11:18N 31°38' W 080°12'3 9.4
2018-Jun-26 10:59N 31°41' W 080°10'5 9.4
2018-Jun-26 10:27N 31°44' W 080°06'7 9.5
2018-Jun-26 09:41N 31°50' W 080°01'2 9.5
2018-Jun-26 09:30N 31°51' W 079°59'5 9.5
2018-Jun-26 09:00N 31°55' W 079°56'510.0
2018-Jun-26 08:30N 31°59' W 079°52'510.1
2018-Jun-26 08:00N 32°03' W 079°48'510.3
2018-Jun-26 07:30N 32°06' W 079°44'710.7
2018-Jun-26 06:53N 32°09' W 079°37'199 9.5
2018-Jun-25 09:52N 34°10' W 076°28'410.3
2018-Jun-25 09:31N 34°12' W 076°24'710.5
2018-Jun-25 08:52N 34°16' W 076°18'410.3
2018-Jun-25 08:30N 34°18' W 076°14'45 9.5
2018-Jun-25 03:46N 34°36' W 075°24'3 7.8
2018-Jun-25 03:21N 34°37' W 075°20'4 7.3
2018-Jun-25 02:48N 34°38' W 075°15'38 7.4
2018-Jun-24 21:39N 35°16' W 075°11'1 9.2
2018-Jun-24 21:30N 35°17' W 075°11'85 9.0
2018-Jun-24 12:02N 36°40' W 075°38'0 9.0
2018-Jun-24 12:00N 36°40' W 075°38'15 9.0
2018-Jun-24 10:19N 36°51' W 075°51'6 9.2
2018-Jun-24 09:40N 36°55' W 075°57'5 9.4
2018-Jun-24 09:06N 36°59' W 076°02'2211.9
2018-Jun-24 07:18N 37°20' W 076°07'413.3
2018-Jun-24 07:00N 37°24' W 076°07'713.1
2018-Jun-24 06:30N 37°30' W 076°08'1612.7
2018-Jun-24 05:17N 37°46' W 076°11'712.4
2018-Jun-24 04:45N 37°52' W 076°10'311.6
2018-Jun-24 04:29N 37°55' W 076°11'  

Dump ship's entire track history